createdAt,value
2023-03-19T00:00:21.432Z,3.30
2023-03-19T00:02:23.768Z,4.18
2023-03-19T00:04:27.503Z,4.07
2023-03-19T00:06:28.928Z,3.92
2023-03-19T00:08:30.436Z,4.07
2023-03-19T00:10:32.005Z,6.05
2023-03-19T00:12:36.677Z,4.18
2023-03-19T00:14:38.634Z,3.75
2023-03-19T00:16:40.317Z,4.35
2023-03-19T00:18:41.892Z,4.20
2023-03-19T00:20:45.844Z,4.25
2023-03-19T00:22:47.623Z,4.35
2023-03-19T00:24:49.224Z,4.55
2023-03-19T00:26:51.327Z,3.70
2023-03-19T00:28:54.388Z,4.05
2023-03-19T00:30:56.427Z,3.92
2023-03-19T00:32:57.988Z,3.70
2023-03-19T00:34:59.524Z,4.18
2023-03-19T00:37:01.324Z,3.92
2023-03-19T00:39:05.724Z,6.65
2023-03-19T00:41:07.638Z,4.30
2023-03-19T00:43:09.524Z,4.75
2023-03-19T00:45:12.909Z,4.13
2023-03-19T00:47:14.766Z,4.05
2023-03-19T00:49:16.236Z,4.18
2023-03-19T00:51:17.792Z,4.50
2023-03-19T00:53:21.811Z,4.03
2023-03-19T00:55:24.411Z,4.43
2023-03-19T00:57:27.088Z,5.07
2023-03-19T00:59:29.098Z,4.53
2023-03-19T01:01:30.681Z,4.43
2023-03-19T01:03:33.399Z,4.90
2023-03-19T01:05:36.200Z,4.30
2023-03-19T01:07:40.306Z,4.43
2023-03-19T01:09:41.897Z,5.22
2023-03-19T01:11:43.357Z,5.65
2023-03-19T01:13:45.709Z,4.90
2023-03-19T01:15:47.168Z,5.05
2023-03-19T01:17:48.612Z,4.55
2023-03-19T01:19:50.077Z,5.20
2023-03-19T01:21:51.625Z,5.40
2023-03-19T01:23:53.272Z,4.70
2023-03-19T01:25:54.794Z,4.95
2023-03-19T01:27:56.364Z,5.45
2023-03-19T01:29:57.808Z,4.82
2023-03-19T01:31:59.277Z,8.43
2023-03-19T01:34:01.734Z,5.20
2023-03-19T01:36:04.867Z,5.68
2023-03-19T01:38:06.394Z,5.70
2023-03-19T01:40:13.189Z,5.97
2023-03-19T01:42:15.002Z,6.28
2023-03-19T01:44:27.709Z,5.25
2023-03-19T01:46:29.176Z,8.30
2023-03-19T01:48:43.595Z,6.50
2023-03-19T01:50:46.178Z,7.20
2023-03-19T01:52:47.740Z,6.95
2023-03-19T01:54:49.402Z,7.50
2023-03-19T01:57:00.258Z,6.10
2023-03-19T01:59:11.036Z,7.30
2023-03-19T02:01:14.210Z,6.43
2023-03-19T02:03:16.373Z,6.10
2023-03-19T02:05:25.560Z,6.30
2023-03-19T02:07:30.906Z,6.30
2023-03-19T02:09:32.746Z,6.50
2023-03-19T02:11:34.250Z,7.57
2023-03-19T02:13:36.591Z,5.63
2023-03-19T02:15:38.358Z,7.47
2023-03-19T02:17:41.630Z,7.30
2023-03-19T02:20:01.947Z,7.20
2023-03-19T02:22:05.019Z,6.70
2023-03-19T02:24:17.378Z,6.80
2023-03-19T02:26:21.668Z,6.80
2023-03-19T02:28:24.279Z,7.07
2023-03-19T02:30:27.930Z,7.30
2023-03-19T02:32:29.392Z,7.72
2023-03-19T02:34:34.969Z,7.32
2023-03-19T02:36:44.488Z,6.55
2023-03-19T02:38:46.830Z,6.63
2023-03-19T02:40:54.092Z,6.95
2023-03-19T02:42:55.543Z,7.40
2023-03-19T02:44:57.820Z,7.00
2023-03-19T02:46:59.673Z,7.40
2023-03-19T02:49:01.614Z,7.35
2023-03-19T02:51:03.894Z,7.07
2023-03-19T02:53:05.653Z,7.30
2023-03-19T02:55:07.963Z,7.63
2023-03-19T02:57:09.485Z,7.45
2023-03-19T02:59:10.966Z,7.22
2023-03-19T03:01:12.498Z,6.60
2023-03-19T03:03:14.152Z,6.80
2023-03-19T03:05:15.590Z,7.50
2023-03-19T03:07:17.285Z,6.30
2023-03-19T03:09:19.630Z,7.28
2023-03-19T03:11:21.077Z,8.43
2023-03-19T03:13:22.618Z,7.97
2023-03-19T03:15:24.470Z,7.80
2023-03-19T03:17:25.949Z,7.57
2023-03-19T03:19:27.766Z,7.68
2023-03-19T03:21:29.592Z,7.68
2023-03-19T03:23:31.117Z,7.32
2023-03-19T03:25:32.620Z,7.28
2023-03-19T03:27:34.116Z,7.65
2023-03-19T03:29:35.587Z,6.78
2023-03-19T03:31:37.352Z,7.10
2023-03-19T03:33:39.180Z,6.93
2023-03-19T03:35:40.719Z,6.10
2023-03-19T03:37:42.288Z,7.40
2023-03-19T03:39:43.813Z,7.75
2023-03-19T03:41:45.800Z,7.38
2023-03-19T03:43:47.816Z,7.97
2023-03-19T03:45:49.800Z,6.88
2023-03-19T03:47:51.342Z,6.68
2023-03-19T03:49:52.853Z,6.15
2023-03-19T03:51:54.341Z,6.97
2023-03-19T03:53:55.823Z,6.40
2023-03-19T03:55:57.400Z,6.63
2023-03-19T03:57:59.130Z,5.70
2023-03-19T04:00:00.712Z,6.15
2023-03-19T04:02:02.325Z,6.05
2023-03-19T04:04:03.849Z,6.03
2023-03-19T04:06:06.075Z,5.78
2023-03-19T04:08:08.671Z,6.68
2023-03-19T04:10:11.922Z,8.75
2023-03-19T04:12:14.061Z,8.70
2023-03-19T04:14:15.552Z,7.97
2023-03-19T04:16:17.068Z,7.18
2023-03-19T04:18:18.604Z,7.20
2023-03-19T04:20:20.144Z,6.40
2023-03-19T04:22:21.611Z,6.65
2023-03-19T04:24:23.254Z,6.78
2023-03-19T04:26:24.729Z,6.25
2023-03-19T04:28:26.447Z,7.60
2023-03-19T04:30:28.164Z,6.35
2023-03-19T04:32:29.704Z,8.48
2023-03-19T04:34:31.846Z,6.85
2023-03-19T04:36:33.320Z,7.22
2023-03-19T04:38:34.806Z,8.25
2023-03-19T04:40:36.618Z,9.02
2023-03-19T04:42:38.137Z,7.55
2023-03-19T04:44:39.612Z,8.35
2023-03-19T04:46:41.877Z,8.68
2023-03-19T04:48:43.448Z,9.38
2023-03-19T04:50:47.107Z,9.98
2023-03-19T04:52:49.672Z,8.85
2023-03-19T04:54:51.136Z,8.68
2023-03-19T04:56:53.238Z,8.25
2023-03-19T04:58:54.779Z,8.32
2023-03-19T05:00:56.257Z,8.45
2023-03-19T05:02:57.999Z,14.00
2023-03-19T05:04:59.448Z,8.38
2023-03-19T05:07:00.982Z,7.85
2023-03-19T05:09:03.887Z,8.63
2023-03-19T05:11:05.535Z,8.98
2023-03-19T05:13:07.245Z,8.63
2023-03-19T05:15:09.502Z,8.52
2023-03-19T05:17:11.348Z,8.90
2023-03-19T05:19:13.044Z,8.30
2023-03-19T05:21:14.880Z,9.77
2023-03-19T05:23:17.855Z,8.30
2023-03-19T05:25:19.532Z,9.70
2023-03-19T05:27:21.117Z,8.25
2023-03-19T05:29:23.289Z,8.52
2023-03-19T05:31:24.918Z,8.32
2023-03-19T05:33:26.844Z,8.02
2023-03-19T05:35:29.783Z,7.97
2023-03-19T05:37:31.844Z,7.80
2023-03-19T05:39:33.528Z,10.30
2023-03-19T05:41:35.064Z,8.07
2023-03-19T05:43:37.137Z,8.70
2023-03-19T05:45:38.990Z,9.63
2023-03-19T05:47:40.576Z,8.05
2023-03-19T05:49:42.020Z,7.97
2023-03-19T05:51:43.508Z,9.02
2023-03-19T05:53:46.012Z,8.43
2023-03-19T05:55:47.465Z,12.48
2023-03-19T05:57:49.029Z,7.97
2023-03-19T05:59:51.091Z,8.05
2023-03-19T06:01:52.622Z,8.40
2023-03-19T06:03:54.163Z,9.00
2023-03-19T06:05:55.830Z,8.10
2023-03-19T06:07:57.284Z,9.20
2023-03-19T06:09:58.733Z,8.80
2023-03-19T06:12:00.439Z,8.07
2023-03-19T06:14:01.915Z,8.85
2023-03-19T06:16:03.573Z,9.10
2023-03-19T06:18:05.235Z,12.27
2023-03-19T06:20:07.185Z,10.00
2023-03-19T06:22:08.991Z,11.15
2023-03-19T06:24:10.542Z,11.77
2023-03-19T06:26:12.387Z,9.15
2023-03-19T06:28:13.995Z,9.98
2023-03-19T06:30:15.774Z,11.50
2023-03-19T06:32:17.297Z,9.52
2023-03-19T06:34:18.993Z,10.25
2023-03-19T06:36:20.515Z,10.50
2023-03-19T06:38:22.483Z,10.32
2023-03-19T06:40:24.495Z,10.45
2023-03-19T06:42:26.118Z,13.75
2023-03-19T06:44:27.691Z,10.40
2023-03-19T06:46:29.303Z,9.60
2023-03-19T06:48:31.184Z,11.45
2023-03-19T06:50:32.918Z,10.45
2023-03-19T06:52:34.517Z,11.85
2023-03-19T06:54:38.358Z,13.80
2023-03-19T06:56:40.628Z,10.55
2023-03-19T06:58:42.156Z,10.00
2023-03-19T07:00:44.128Z,11.85
2023-03-19T07:02:45.641Z,10.80
2023-03-19T07:04:47.118Z,11.15
2023-03-19T07:06:48.642Z,11.43
2023-03-19T07:08:50.131Z,10.73
2023-03-19T07:10:51.668Z,12.27
2023-03-19T07:12:53.216Z,11.25
2023-03-19T07:14:58.497Z,12.82
2023-03-19T07:16:59.970Z,9.68
2023-03-19T07:19:01.441Z,12.40
2023-03-19T07:21:03.454Z,12.88
2023-03-19T07:23:04.906Z,11.10
2023-03-19T07:25:07.267Z,17.63
2023-03-19T07:27:08.829Z,12.23
2023-03-19T07:29:11.175Z,11.52
2023-03-19T07:31:13.612Z,10.13
2023-03-19T07:33:15.080Z,10.88
2023-03-19T07:35:16.868Z,11.93
2023-03-19T07:37:20.171Z,12.13
2023-03-19T07:39:23.416Z,10.82
2023-03-19T07:41:24.873Z,9.90
2023-03-19T07:43:26.458Z,12.15
2023-03-19T07:45:27.937Z,13.30
2023-03-19T07:47:29.836Z,12.75
2023-03-19T07:49:31.491Z,11.23
2023-03-19T07:51:33.468Z,11.60
2023-03-19T07:53:34.948Z,11.60
2023-03-19T07:55:38.431Z,11.32
2023-03-19T07:57:40.426Z,10.63
2023-03-19T07:59:42.201Z,9.77
2023-03-19T08:01:43.859Z,10.90
2023-03-19T08:03:45.391Z,10.23
2023-03-19T08:05:50.441Z,18.30
2023-03-19T08:07:52.358Z,11.10
2023-03-19T08:09:53.900Z,11.50
2023-03-19T08:11:55.806Z,13.25
2023-03-19T08:13:57.286Z,10.57
2023-03-19T08:15:58.801Z,10.48
2023-03-19T08:18:01.755Z,10.07
2023-03-19T08:20:04.339Z,9.38
2023-03-19T08:22:05.966Z,11.20
2023-03-19T08:24:07.434Z,14.07
2023-03-19T08:26:08.915Z,14.48
2023-03-19T08:28:10.536Z,10.15
2023-03-19T08:30:12.653Z,9.68
2023-03-19T08:32:14.226Z,8.43
2023-03-19T08:34:15.740Z,9.50
2023-03-19T08:36:17.301Z,9.63
2023-03-19T08:38:20.003Z,8.52
2023-03-19T08:40:22.122Z,9.85
2023-03-19T08:42:23.867Z,9.07
2023-03-19T08:44:25.362Z,13.73
2023-03-19T08:46:27.768Z,8.25
2023-03-19T08:48:29.485Z,9.32
2023-03-19T08:50:30.991Z,7.90
2023-03-19T08:52:32.938Z,6.93
2023-03-19T08:54:34.630Z,7.38
2023-03-19T08:56:36.066Z,11.18
2023-03-19T08:58:37.640Z,8.48
2023-03-19T09:00:39.086Z,10.20
2023-03-19T09:02:40.764Z,6.82
2023-03-19T09:04:43.325Z,6.85
2023-03-19T09:06:45.224Z,7.25
2023-03-19T09:08:46.784Z,6.28
2023-03-19T09:10:49.855Z,7.78
2023-03-19T09:12:52.862Z,9.48
2023-03-19T09:14:54.316Z,7.25
2023-03-19T09:16:55.854Z,12.25
2023-03-19T09:18:59.329Z,8.35
2023-03-19T09:21:01.663Z,6.82
2023-03-19T09:23:03.492Z,7.05
2023-03-19T09:25:05.434Z,8.35
2023-03-19T09:27:06.906Z,6.18
2023-03-19T09:29:09.086Z,6.28
2023-03-19T09:31:11.572Z,7.20
2023-03-19T09:33:13.281Z,7.10
2023-03-19T09:35:14.907Z,6.03
2023-03-19T09:37:16.560Z,7.95
2023-03-19T09:39:18.067Z,5.57
2023-03-19T09:41:32.473Z,5.75
2023-03-19T09:44:00.642Z,6.82
2023-03-19T09:46:06.531Z,7.90
2023-03-19T09:48:16.921Z,9.23
2023-03-19T09:50:21.313Z,6.32
2023-03-19T09:52:47.130Z,5.72
2023-03-19T09:54:52.815Z,6.00
2023-03-19T09:56:55.477Z,5.07
2023-03-19T09:58:57.004Z,6.32
2023-03-19T10:01:00.972Z,6.30
2023-03-19T10:03:34.838Z,7.60
2023-03-19T10:05:53.353Z,8.07
2023-03-19T10:07:57.801Z,7.63
2023-03-19T10:10:08.327Z,8.88
2023-03-19T10:12:09.773Z,7.50
2023-03-19T10:14:36.126Z,5.22
2023-03-19T10:16:41.167Z,4.30
2023-03-19T10:18:48.373Z,5.50
2023-03-19T10:20:56.737Z,4.60
2023-03-19T10:23:37.517Z,7.63
2023-03-19T10:25:41.627Z,4.53
2023-03-19T10:27:46.624Z,6.47
2023-03-19T10:29:48.439Z,6.25
2023-03-19T10:32:18.655Z,4.95
2023-03-19T10:34:29.502Z,4.15
2023-03-19T10:36:35.701Z,7.38
2023-03-19T10:38:44.712Z,5.25
2023-03-19T10:41:01.877Z,7.45
2023-03-19T10:43:24.744Z,4.75
2023-03-19T10:45:31.902Z,6.07
2023-03-19T10:47:39.487Z,6.97
2023-03-19T10:49:42.066Z,5.88
2023-03-19T10:51:46.258Z,6.30
2023-03-19T10:53:47.876Z,7.47
2023-03-19T10:56:00.216Z,7.80
2023-03-19T10:58:05.751Z,6.22
2023-03-19T11:00:15.510Z,5.40
2023-03-19T11:02:20.719Z,8.30
2023-03-19T11:04:23.537Z,4.88
2023-03-19T11:06:35.449Z,8.85
2023-03-19T11:08:38.027Z,7.68
2023-03-19T11:10:46.584Z,6.05
2023-03-19T11:12:54.694Z,6.05
2023-03-19T11:14:59.980Z,8.02
2023-03-19T11:17:36.719Z,5.43
2023-03-19T11:19:42.646Z,8.40
2023-03-19T11:21:59.002Z,5.35
2023-03-19T11:24:03.527Z,5.65
2023-03-19T11:26:05.173Z,5.22
2023-03-19T11:28:15.648Z,7.53
2023-03-19T11:30:19.561Z,8.43
2023-03-19T11:32:33.692Z,9.73
2023-03-19T11:34:54.093Z,4.97
2023-03-19T11:37:01.790Z,6.32
2023-03-19T11:39:12.340Z,7.60
2023-03-19T11:41:24.798Z,9.95
2023-03-19T11:43:48.950Z,10.20
2023-03-19T11:45:59.494Z,9.18
2023-03-19T11:48:31.569Z,10.10
2023-03-19T11:50:50.022Z,9.52
2023-03-19T11:53:14.633Z,10.25
2023-03-19T11:55:39.202Z,6.55
2023-03-19T11:58:18.636Z,7.15
2023-03-19T12:00:31.359Z,8.60
2023-03-19T12:03:00.517Z,9.60
2023-03-19T12:05:21.085Z,7.65
2023-03-19T12:07:32.811Z,9.43
2023-03-19T12:10:25.424Z,11.32
2023-03-19T12:12:39.484Z,9.90
2023-03-19T12:14:59.433Z,11.35
2023-03-19T12:17:07.259Z,10.40
2023-03-19T12:19:36.590Z,11.30
2023-03-19T12:22:22.415Z,10.40
2023-03-19T12:24:48.719Z,12.48
2023-03-19T12:27:36.511Z,11.02
2023-03-19T12:29:59.662Z,12.55
2023-03-19T12:32:16.641Z,11.35
2023-03-19T12:34:27.139Z,11.20
2023-03-19T12:36:33.900Z,10.43
2023-03-19T12:38:45.326Z,12.43
2023-03-19T12:40:49.375Z,12.07
2023-03-19T12:42:51.945Z,10.38
2023-03-19T12:44:57.078Z,10.85
2023-03-19T12:47:09.694Z,11.23
2023-03-19T12:49:17.756Z,10.15
2023-03-19T12:51:23.079Z,10.38
2023-03-19T12:53:54.241Z,9.65
2023-03-19T12:56:01.188Z,10.30
2023-03-19T12:58:14.664Z,10.30
2023-03-19T13:00:25.246Z,10.48
2023-03-19T13:02:59.034Z,10.55
2023-03-19T13:05:14.711Z,10.45
2023-03-19T13:07:36.134Z,9.98
2023-03-19T13:10:00.746Z,9.38
2023-03-19T13:12:10.694Z,14.18
2023-03-19T13:14:26.752Z,9.55
2023-03-19T13:16:45.350Z,12.85
2023-03-19T13:18:58.115Z,8.30
2023-03-19T13:21:32.407Z,8.50
2023-03-19T13:23:38.410Z,8.32
2023-03-19T13:25:48.171Z,7.53
2023-03-19T13:27:54.644Z,8.10
2023-03-19T13:30:12.189Z,8.15
2023-03-19T13:32:35.839Z,8.30
2023-03-19T13:34:38.344Z,7.45
2023-03-19T13:36:40.890Z,7.07
2023-03-19T13:38:50.628Z,7.07
2023-03-19T13:40:53.172Z,6.93
2023-03-19T13:42:57.619Z,4.97
2023-03-19T13:45:38.233Z,8.05
2023-03-19T13:47:43.294Z,5.68
2023-03-19T13:50:08.785Z,7.40
2023-03-19T13:52:10.479Z,5.38
2023-03-19T13:54:12.666Z,8.57
2023-03-19T13:56:29.066Z,5.57
2023-03-19T13:58:54.063Z,7.05
2023-03-19T14:00:59.614Z,5.40
2023-03-19T14:03:01.681Z,7.40
2023-03-19T14:05:19.038Z,6.57
2023-03-19T14:07:30.344Z,6.25
2023-03-19T14:09:38.876Z,6.10
2023-03-19T14:11:40.390Z,10.35
2023-03-19T14:13:47.591Z,5.95
2023-03-19T14:15:51.238Z,5.68
2023-03-19T14:18:02.378Z,5.63
2023-03-19T14:20:13.195Z,7.30
2023-03-19T14:22:42.634Z,5.60
2023-03-19T14:24:58.033Z,5.25
2023-03-19T14:27:12.118Z,6.93
2023-03-19T14:29:16.963Z,5.13
2023-03-19T14:31:23.714Z,6.15
2023-03-19T14:33:29.484Z,5.18
2023-03-19T14:35:36.619Z,5.40
2023-03-19T14:37:38.044Z,5.05
2023-03-19T14:39:44.031Z,6.95
2023-03-19T14:41:50.931Z,5.35
2023-03-19T14:44:16.296Z,5.55
2023-03-19T14:46:40.775Z,7.30
2023-03-19T14:49:13.054Z,5.05
2023-03-19T14:51:26.443Z,4.78
2023-03-19T14:53:37.916Z,4.75
2023-03-19T14:55:39.433Z,4.50
2023-03-19T14:57:42.072Z,4.03
2023-03-19T14:59:43.664Z,4.20
2023-03-19T15:01:50.520Z,5.55
2023-03-19T15:03:56.439Z,3.92
2023-03-19T15:06:01.369Z,3.20
2023-03-19T15:08:05.850Z,3.75
2023-03-19T15:10:18.932Z,4.20
2023-03-19T15:12:20.329Z,2.90
2023-03-19T15:14:34.474Z,2.72
2023-03-19T15:17:06.037Z,3.75
2023-03-19T15:19:11.438Z,4.55
2023-03-19T15:21:13.092Z,3.08
2023-03-19T15:23:26.787Z,3.38
2023-03-19T15:25:29.130Z,3.30
2023-03-19T15:27:30.794Z,4.15
2023-03-19T15:29:33.410Z,3.90
2023-03-19T15:31:51.590Z,4.28
2023-03-19T15:33:55.305Z,3.67
2023-03-19T15:36:02.784Z,4.03
2023-03-19T15:38:10.974Z,4.43
2023-03-19T15:40:16.175Z,3.92
2023-03-19T15:42:21.610Z,4.50
2023-03-19T15:44:32.730Z,4.22
2023-03-19T15:46:38.867Z,5.65
2023-03-19T15:49:11.267Z,4.43
2023-03-19T15:51:14.912Z,4.88
2023-03-19T15:53:22.596Z,5.72
2023-03-19T15:55:26.645Z,5.00
2023-03-19T15:57:28.663Z,5.00
2023-03-19T15:59:31.651Z,4.45
2023-03-19T16:01:34.367Z,4.95
2023-03-19T16:03:42.143Z,5.00
2023-03-19T16:05:43.840Z,4.93
2023-03-19T16:07:50.809Z,5.35
2023-03-19T16:09:52.789Z,4.82
2023-03-19T16:11:55.076Z,5.15
2023-03-19T16:13:58.742Z,7.00
2023-03-19T16:16:05.128Z,5.43
2023-03-19T16:18:22.285Z,5.28
2023-03-19T16:20:23.849Z,4.65
2023-03-19T16:22:30.721Z,5.22
2023-03-19T16:24:37.462Z,4.32
2023-03-19T16:26:44.422Z,5.47
2023-03-19T16:29:25.488Z,5.03
2023-03-19T16:31:32.017Z,4.95
2023-03-19T16:33:33.735Z,4.60
2023-03-19T16:35:36.721Z,4.72
2023-03-19T16:37:41.193Z,4.88
2023-03-19T16:39:55.148Z,4.70
2023-03-19T16:42:08.859Z,4.60
2023-03-19T16:44:31.386Z,16.02
2023-03-19T16:46:33.189Z,4.18
2023-03-19T16:48:34.726Z,4.60
2023-03-19T16:50:38.787Z,5.32
2023-03-19T16:52:41.290Z,4.30
2023-03-19T16:54:43.743Z,4.43
2023-03-19T16:56:45.320Z,4.35
2023-03-19T16:58:48.197Z,5.00
2023-03-19T17:00:49.716Z,3.83
2023-03-19T17:02:52.722Z,5.18
2023-03-19T17:04:54.267Z,3.60
2023-03-19T17:06:56.046Z,5.47
2023-03-19T17:08:57.539Z,4.05
2023-03-19T17:10:59.022Z,3.30
2023-03-19T17:13:00.873Z,4.30
2023-03-19T17:15:02.421Z,3.35
2023-03-19T17:17:03.891Z,4.00
2023-03-19T17:19:16.110Z,3.67
2023-03-19T17:21:23.095Z,3.28
2023-03-19T17:23:27.008Z,3.25
2023-03-19T17:25:28.712Z,3.72
2023-03-19T17:27:32.452Z,4.60
2023-03-19T17:29:35.733Z,3.28
2023-03-19T17:31:37.330Z,3.22
2023-03-19T17:33:38.820Z,5.75
2023-03-19T17:35:40.420Z,3.38
2023-03-19T17:37:42.209Z,5.80
2023-03-19T17:39:45.704Z,3.03
2023-03-19T17:41:47.188Z,4.03
2023-03-19T17:43:48.726Z,4.00
2023-03-19T17:45:50.574Z,4.22
2023-03-19T17:47:56.285Z,3.80
2023-03-19T17:49:57.904Z,6.35
2023-03-19T17:52:00.397Z,5.25
2023-03-19T17:54:01.920Z,5.75
2023-03-19T17:56:03.890Z,5.30
2023-03-19T17:58:06.812Z,4.15
2023-03-19T18:00:09.863Z,4.82
2023-03-19T18:02:32.177Z,4.25
2023-03-19T18:04:33.745Z,6.53
2023-03-19T18:06:40.045Z,9.05
2023-03-19T18:08:41.564Z,4.35
2023-03-19T18:10:43.602Z,4.30
2023-03-19T18:12:45.276Z,4.15
2023-03-19T18:14:46.761Z,6.03
2023-03-19T18:16:48.488Z,5.60
2023-03-19T18:18:51.543Z,4.85
2023-03-19T18:20:53.154Z,4.25
2023-03-19T18:22:54.713Z,4.65
2023-03-19T18:24:57.136Z,5.43
2023-03-19T18:26:58.580Z,5.45
2023-03-19T18:29:00.059Z,6.93
2023-03-19T18:31:01.742Z,4.70
2023-03-19T18:33:06.771Z,5.00
2023-03-19T18:35:17.985Z,4.57
2023-03-19T18:37:19.849Z,4.65
2023-03-19T18:39:21.385Z,5.45
2023-03-19T18:41:25.340Z,5.35
2023-03-19T18:43:26.889Z,5.90
2023-03-19T18:45:30.662Z,6.88
2023-03-19T18:47:32.317Z,6.50
2023-03-19T18:49:33.797Z,9.10
2023-03-19T18:51:35.424Z,9.05
2023-03-19T18:53:37.043Z,7.50
2023-03-19T18:55:38.610Z,6.32
2023-03-19T18:57:52.559Z,6.68
2023-03-19T18:59:54.903Z,6.90
2023-03-19T19:02:17.156Z,21.27
2023-03-19T19:04:18.717Z,6.25
2023-03-19T19:06:36.591Z,10.40
2023-03-19T19:08:47.549Z,5.95
2023-03-19T19:10:53.329Z,5.60
2023-03-19T19:12:56.199Z,6.78
2023-03-19T19:15:05.105Z,8.13
2023-03-19T19:17:10.080Z,5.65
2023-03-19T19:19:17.615Z,5.38
2023-03-19T19:21:19.433Z,5.32
2023-03-19T19:23:22.148Z,6.25
2023-03-19T19:25:28.789Z,5.80
2023-03-19T19:27:30.976Z,5.63
2023-03-19T19:29:32.548Z,8.55
2023-03-19T19:31:35.823Z,7.55
2023-03-19T19:33:37.495Z,6.72
2023-03-19T19:35:38.959Z,9.65
2023-03-19T19:37:40.639Z,6.75
2023-03-19T19:39:42.230Z,10.75
2023-03-19T19:41:43.873Z,11.40
2023-03-19T19:43:47.397Z,6.68
2023-03-19T19:45:51.433Z,8.88
2023-03-19T19:47:53.005Z,10.45
2023-03-19T19:49:54.472Z,8.38
2023-03-19T19:51:56.147Z,8.65
2023-03-19T19:53:57.612Z,9.07
2023-03-19T19:55:59.163Z,12.13
2023-03-19T19:58:01.661Z,12.27
2023-03-19T20:00:04.210Z,17.17
2023-03-19T20:02:21.600Z,20.20
2023-03-19T20:04:23.143Z,21.40
2023-03-19T20:06:24.688Z,22.15
2023-03-19T20:08:27.124Z,23.25
2023-03-19T20:10:30.709Z,25.52
2023-03-19T20:12:33.311Z,25.02
2023-03-19T20:14:34.798Z,26.67
2023-03-19T20:16:36.270Z,27.30
2023-03-19T20:18:43.323Z,27.08
2023-03-19T20:20:45.075Z,26.27
2023-03-19T20:22:47.591Z,28.58
2023-03-19T20:24:51.253Z,27.02
2023-03-19T20:26:53.160Z,32.25
2023-03-19T20:28:54.652Z,23.13
2023-03-19T20:30:56.441Z,24.35
2023-03-19T20:32:59.674Z,25.45
2023-03-19T20:35:01.478Z,22.23
2023-03-19T20:37:02.934Z,23.67
2023-03-19T20:39:04.612Z,22.67
2023-03-19T20:41:14.853Z,24.10
2023-03-19T20:43:29.823Z,22.98
2023-03-19T20:45:37.672Z,26.45
2023-03-19T20:47:39.130Z,26.67
2023-03-19T20:49:40.612Z,27.88
2023-03-19T20:51:42.072Z,27.48
2023-03-19T20:53:43.525Z,24.33
2023-03-19T20:55:46.993Z,23.30
2023-03-19T20:57:51.181Z,26.75
2023-03-19T20:59:52.759Z,23.92
2023-03-19T21:01:56.403Z,27.63
2023-03-19T21:03:57.914Z,24.23
2023-03-19T21:06:02.705Z,28.85
2023-03-19T21:08:06.118Z,27.88
2023-03-19T21:10:21.118Z,25.83
2023-03-19T21:12:33.345Z,27.13
2023-03-19T21:14:34.830Z,28.92
2023-03-19T21:16:36.536Z,24.65
2023-03-19T21:18:38.061Z,26.75
2023-03-19T21:20:42.525Z,30.58
2023-03-19T21:22:46.359Z,30.42
2023-03-19T21:24:48.964Z,28.25
2023-03-19T21:26:50.534Z,26.55
2023-03-19T21:28:55.052Z,31.65
2023-03-19T21:30:57.766Z,28.95
2023-03-19T21:32:59.584Z,27.92
2023-03-19T21:35:01.508Z,28.85
2023-03-19T21:37:03.196Z,24.95
2023-03-19T21:39:04.668Z,28.92
2023-03-19T21:41:24.755Z,28.00
2023-03-19T21:43:57.334Z,29.27
2023-03-19T21:45:58.962Z,27.45
2023-03-19T21:48:09.489Z,30.30
2023-03-19T21:50:17.381Z,28.25
2023-03-19T21:52:21.601Z,30.43
2023-03-19T21:54:23.869Z,25.83
2023-03-19T21:56:34.897Z,28.88
2023-03-19T21:58:36.689Z,27.67
2023-03-19T22:00:38.480Z,27.13
2023-03-19T22:02:42.682Z,28.08
2023-03-19T22:04:44.469Z,30.38
2023-03-19T22:06:46.781Z,26.60
2023-03-19T22:08:48.813Z,27.45
2023-03-19T22:10:58.521Z,28.00
2023-03-19T22:13:00.248Z,28.42
2023-03-19T22:15:02.583Z,24.73
2023-03-19T22:17:05.703Z,26.92
2023-03-19T22:19:07.158Z,30.05
2023-03-19T22:21:13.966Z,26.98
2023-03-19T22:23:16.032Z,32.60
2023-03-19T22:25:18.875Z,28.02
2023-03-19T22:27:20.360Z,31.65
2023-03-19T22:29:25.371Z,27.20
2023-03-19T22:31:27.244Z,30.27
2023-03-19T22:33:28.939Z,28.70
2023-03-19T22:35:30.471Z,34.53
2023-03-19T22:37:32.172Z,33.72
2023-03-19T22:39:33.625Z,30.80
2023-03-19T22:41:37.453Z,34.10
2023-03-19T22:43:38.960Z,31.33
2023-03-19T22:45:40.522Z,30.08
2023-03-19T22:47:42.117Z,29.60
2023-03-19T22:49:44.946Z,31.20
2023-03-19T22:51:47.297Z,29.75
2023-03-19T22:53:48.866Z,31.42
2023-03-19T22:55:50.560Z,31.02
2023-03-19T22:57:52.047Z,30.30
2023-03-19T22:59:53.496Z,34.30
2023-03-19T23:01:55.788Z,33.40
2023-03-19T23:03:57.600Z,33.97
2023-03-19T23:06:05.411Z,35.83
2023-03-19T23:08:06.870Z,33.28
2023-03-19T23:10:29.147Z,32.22
2023-03-19T23:12:30.856Z,34.55
2023-03-19T23:14:32.380Z,29.88
2023-03-19T23:16:33.985Z,33.60
2023-03-19T23:18:37.056Z,30.65
2023-03-19T23:20:38.528Z,40.47
2023-03-19T23:22:40.359Z,34.38
2023-03-19T23:24:42.292Z,33.22
2023-03-19T23:26:45.877Z,34.58
2023-03-19T23:28:47.407Z,31.70
2023-03-19T23:30:51.326Z,31.15
2023-03-19T23:32:53.217Z,33.00
2023-03-19T23:35:00.595Z,32.63
2023-03-19T23:37:02.826Z,36.45
2023-03-19T23:39:05.068Z,30.80
2023-03-19T23:41:17.807Z,31.85
2023-03-19T23:43:22.685Z,28.77
2023-03-19T23:45:39.941Z,30.77
2023-03-19T23:47:41.776Z,33.47
2023-03-19T23:49:43.293Z,31.63
2023-03-19T23:51:44.752Z,35.63
2023-03-19T23:53:46.849Z,31.45
2023-03-19T23:55:51.267Z,31.77
2023-03-19T23:57:53.340Z,33.08
2023-03-19T23:59:55.102Z,31.65
